カシュガル の空港の天気 - METARとTAF

カシュガル空港 ( ZWSH / KHG ) - 中華人民共和国 新疆ウイグル自治区カシュガル市
飛行場実況気象(Metar)
観測時間07/28 20:00 CST (07/28 12:00 UTC)
風向・風速南西 3m/s
視程10km以上
天気現象
少しの雲 雲底高度 1220m
少しの雲 雲底高度 1220m
気温32℃
湿度29%
気圧1013hPa
METARZWSH 281200Z 23003MPS 170V250 9999 FEW040CB FEW040 32/12 Q1013 NOSIG
過去の天気等 Google飛行場航空写真 Wunderground天気予報

過去48時間のMETAR

飛行場予報(TAF)
発表時間: 7/28 17:10 CST (7/28 09:10 UTC)
予報対象時間: 28日20時 CST ~ 29日20時 CST
風向・風速南 4m/s
視程10km以上
少しの積乱雲 雲底高度 1,220m
28日23時 CST ~ 28日24時 CST に徐々に
風向・風速北北西 4m/s
全天の4割程度の雲 雲底高度 1,220m
TAF ZWSH 280910Z 2812/2912 18004MPS 9999 FEW040CB TX30/2812Z TN22/2900Z
BECMG 2815/2816 33004MPS SCT040